createdAt,value
2023-05-06T00:00:03.873Z,99200.31
2023-05-06T00:03:13.397Z,99189.38
2023-05-06T00:06:15.168Z,99196.50
2023-05-06T00:09:16.942Z,99194.22
2023-05-06T00:12:18.696Z,99185.09
2023-05-06T00:15:20.523Z,99186.47
2023-05-06T00:18:23.669Z,99183.97
2023-05-06T00:21:25.392Z,99172.13
2023-05-06T00:24:27.154Z,99174.06
2023-05-06T00:27:28.945Z,99172.78
2023-05-06T00:30:31.300Z,99182.88
2023-05-06T00:33:32.879Z,99184.03
2023-05-06T00:36:34.601Z,99180.84
2023-05-06T00:39:36.234Z,99175.44
2023-05-06T00:42:37.840Z,99175.66
2023-05-06T00:45:39.905Z,99177.94
2023-05-06T00:48:42.842Z,99180.53
2023-05-06T00:51:44.619Z,99178.25
2023-05-06T00:54:46.263Z,99184.28
2023-05-06T00:57:50.464Z,99175.78
2023-05-06T01:00:52.398Z,99179.50
2023-05-06T01:03:57.298Z,99177.47
2023-05-06T01:07:17.719Z,99182.44
2023-05-06T01:10:22.228Z,99176.13
2023-05-06T01:13:47.035Z,99184.16
2023-05-06T01:16:55.106Z,99182.03
2023-05-06T01:19:59.683Z,99169.34
2023-05-06T01:23:02.694Z,99171.19
2023-05-06T01:26:04.461Z,99171.50
2023-05-06T01:29:06.542Z,99172.53
2023-05-06T01:32:11.424Z,99171.50
2023-05-06T01:35:31.971Z,99170.84
2023-05-06T01:38:43.403Z,99175.78
2023-05-06T01:41:49.983Z,99168.47
2023-05-06T01:44:54.999Z,99163.47
2023-05-06T01:47:57.563Z,99164.16
2023-05-06T01:50:59.319Z,99160.06
2023-05-06T01:54:02.060Z,99170.84
2023-05-06T01:57:03.773Z,99166.09
2023-05-06T02:00:06.288Z,99165.53
2023-05-06T02:03:13.803Z,99170.16
2023-05-06T02:06:15.526Z,99163.28
2023-05-06T02:09:17.247Z,99176.72
2023-05-06T02:12:25.978Z,99173.66
2023-05-06T02:15:28.578Z,99173.78
2023-05-06T02:18:30.999Z,99168.56
2023-05-06T02:21:33.138Z,99170.03
2023-05-06T02:24:34.861Z,99162.69
2023-05-06T02:27:36.467Z,99165.75
2023-05-06T02:30:38.153Z,99149.34
2023-05-06T02:33:39.779Z,99158.16
2023-05-06T02:36:41.537Z,99161.22
2023-05-06T02:39:43.257Z,99159.41
2023-05-06T02:42:44.918Z,99162.56
2023-05-06T02:45:47.929Z,99145.69
2023-05-06T02:48:49.522Z,99157.13
2023-05-06T02:51:51.185Z,99151.81
2023-05-06T02:54:52.937Z,99149.25
2023-05-06T02:57:54.653Z,99151.94
2023-05-06T03:00:56.410Z,99148.00
2023-05-06T03:03:58.084Z,99137.94
2023-05-06T03:06:59.770Z,99144.03
2023-05-06T03:10:01.465Z,99149.69
2023-05-06T03:13:07.012Z,99134.44
2023-05-06T03:16:13.295Z,99138.75
2023-05-06T03:19:17.416Z,99146.22
2023-05-06T03:22:19.997Z,99144.59
2023-05-06T03:25:21.755Z,99135.81
2023-05-06T03:28:24.093Z,99142.56
2023-05-06T03:31:26.022Z,99128.47
2023-05-06T03:34:28.916Z,99138.75
2023-05-06T03:37:31.286Z,99140.47
2023-05-06T03:40:33.611Z,99134.13
2023-05-06T03:43:36.173Z,99138.06
2023-05-06T03:46:40.218Z,99123.06
2023-05-06T03:49:42.585Z,99127.44
2023-05-06T03:52:44.382Z,99135.56
2023-05-06T03:55:46.226Z,99127.13
2023-05-06T03:58:51.301Z,99134.44
2023-05-06T04:01:54.132Z,99126.88
2023-05-06T04:04:55.886Z,99129.81
2023-05-06T04:07:57.608Z,99139.41
2023-05-06T04:11:04.109Z,99133.66
2023-05-06T04:14:06.948Z,99128.13
2023-05-06T04:17:10.390Z,99126.19
2023-05-06T04:20:14.438Z,99131.63
2023-05-06T04:23:16.269Z,99137.94
2023-05-06T04:26:18.271Z,99137.16
2023-05-06T04:29:21.171Z,99135.00
2023-05-06T04:32:36.571Z,99141.56
2023-05-06T04:35:39.959Z,99144.84
2023-05-06T04:38:42.318Z,99145.63
2023-05-06T04:41:45.062Z,99145.28
2023-05-06T04:44:51.338Z,99155.00
2023-05-06T04:47:56.971Z,99152.06
2023-05-06T04:50:59.530Z,99159.66
2023-05-06T04:54:01.204Z,99158.97
2023-05-06T04:57:03.512Z,99161.34
2023-05-06T05:00:07.335Z,99153.56
2023-05-06T05:03:09.933Z,99163.72
2023-05-06T05:06:13.441Z,99157.63
2023-05-06T05:09:15.262Z,99155.34
2023-05-06T05:12:19.176Z,99164.84
2023-05-06T05:15:24.769Z,99159.09
2023-05-06T05:18:29.180Z,99147.91
2023-05-06T05:21:35.240Z,99171.59
2023-05-06T05:24:38.465Z,99177.63
2023-05-06T05:27:42.242Z,99168.34
2023-05-06T05:30:44.133Z,99166.53
2023-05-06T05:33:45.854Z,99173.09
2023-05-06T05:36:50.864Z,99172.84
2023-05-06T05:39:53.506Z,99164.97
2023-05-06T05:42:55.753Z,99172.75
2023-05-06T05:46:07.904Z,99168.25
2023-05-06T05:49:10.555Z,99180.88
2023-05-06T05:52:12.348Z,99185.16
2023-05-06T05:55:14.419Z,99182.69
2023-05-06T05:58:19.322Z,99180.00
2023-05-06T06:01:21.824Z,99183.25
2023-05-06T06:04:24.362Z,99178.38
2023-05-06T06:07:26.166Z,99176.34
2023-05-06T06:10:27.900Z,99180.75
2023-05-06T06:13:30.545Z,99185.97
2023-05-06T06:16:34.548Z,99185.81
2023-05-06T06:19:36.306Z,99184.13
2023-05-06T06:22:38.061Z,99181.81
2023-05-06T06:25:40.041Z,99187.81
2023-05-06T06:28:42.049Z,99190.25
2023-05-06T06:31:43.775Z,99196.69
2023-05-06T06:34:45.466Z,99194.50
2023-05-06T06:37:47.563Z,99208.25
2023-05-06T06:40:50.266Z,99208.34
2023-05-06T06:43:51.861Z,99204.56
2023-05-06T06:46:57.969Z,99207.94
2023-05-06T06:49:59.560Z,99204.28
2023-05-06T06:53:02.326Z,99204.66
2023-05-06T06:56:10.404Z,99214.63
2023-05-06T06:59:12.084Z,99195.13
2023-05-06T07:02:13.749Z,99210.75
2023-05-06T07:05:15.968Z,99206.97
2023-05-06T07:08:17.672Z,99206.66
2023-05-06T07:11:19.425Z,99213.22
2023-05-06T07:14:21.027Z,99211.84
2023-05-06T07:17:22.734Z,99213.03
2023-05-06T07:20:24.438Z,99214.38
2023-05-06T07:23:26.145Z,99220.41
2023-05-06T07:26:27.775Z,99220.13
2023-05-06T07:29:29.462Z,99221.91
2023-05-06T07:32:31.202Z,99221.59
2023-05-06T07:35:33.035Z,99220.34
2023-05-06T07:38:34.651Z,99228.63
2023-05-06T07:41:36.593Z,99227.56
2023-05-06T07:44:38.316Z,99228.97
2023-05-06T07:47:40.111Z,99227.88
2023-05-06T07:50:41.897Z,99232.06
2023-05-06T07:53:43.576Z,99224.13
2023-05-06T07:56:45.536Z,99225.13
2023-05-06T07:59:48.419Z,99225.88
2023-05-06T08:02:50.271Z,99232.97
2023-05-06T08:05:52.692Z,99238.69
2023-05-06T08:08:54.342Z,99229.41
2023-05-06T08:11:56.342Z,99233.47
2023-05-06T08:14:58.467Z,99230.97
2023-05-06T08:18:06.992Z,99236.91
2023-05-06T08:21:15.940Z,99233.84
2023-05-06T08:24:17.590Z,99237.81
2023-05-06T08:27:19.172Z,99222.84
2023-05-06T08:30:21.094Z,99230.72
2023-05-06T08:33:22.998Z,99231.66
2023-05-06T08:36:26.423Z,99229.78
2023-05-06T08:39:28.205Z,99225.72
2023-05-06T08:42:30.478Z,99227.75
2023-05-06T08:45:33.049Z,99230.31
2023-05-06T08:48:35.102Z,99222.56
2023-05-06T08:51:38.286Z,99224.81
2023-05-06T08:54:41.368Z,99226.31
2023-05-06T08:57:45.240Z,99226.66
2023-05-06T09:00:47.121Z,99215.94
2023-05-06T09:03:49.140Z,99217.31
2023-05-06T09:06:50.921Z,99223.47
2023-05-06T09:09:52.677Z,99216.44
2023-05-06T09:12:54.910Z,99222.13
2023-05-06T09:15:56.504Z,99208.13
2023-05-06T09:18:59.221Z,99215.09
2023-05-06T09:22:01.108Z,99207.38
2023-05-06T09:25:03.653Z,99207.47
2023-05-06T09:28:07.683Z,99195.69
2023-05-06T09:31:09.533Z,99189.41
2023-05-06T09:34:11.846Z,99197.94
2023-05-06T09:37:13.515Z,99190.25
2023-05-06T09:40:15.536Z,99189.94
2023-05-06T09:43:17.671Z,99184.47
2023-05-06T09:46:21.144Z,99181.34
2023-05-06T09:49:23.365Z,99183.66
2023-05-06T09:52:27.549Z,99179.78
2023-05-06T09:55:30.713Z,99172.66
2023-05-06T09:58:34.024Z,99168.53
2023-05-06T10:01:37.755Z,99162.25
2023-05-06T10:04:43.548Z,99174.81
2023-05-06T10:07:46.930Z,99157.72
2023-05-06T10:10:49.888Z,99160.16
2023-05-06T10:13:51.685Z,99160.53
2023-05-06T10:16:54.654Z,99152.69
2023-05-06T10:20:00.398Z,99159.72
2023-05-06T10:23:20.902Z,99147.19
2023-05-06T10:26:22.990Z,99157.00
2023-05-06T10:29:26.831Z,99155.03
2023-05-06T10:32:32.993Z,99150.72
2023-05-06T10:35:43.620Z,99150.09
2023-05-06T10:38:49.413Z,99132.28
2023-05-06T10:41:51.297Z,99127.47
2023-05-06T10:45:06.455Z,99121.06
2023-05-06T10:48:12.891Z,99123.38
2023-05-06T10:51:17.527Z,99134.00
2023-05-06T10:54:19.886Z,99129.72
2023-05-06T10:57:26.802Z,99140.63
2023-05-06T11:00:33.665Z,99123.38
2023-05-06T11:03:36.252Z,99123.97
2023-05-06T11:06:43.268Z,99116.44
2023-05-06T11:10:13.986Z,99118.00
2023-05-06T11:13:27.544Z,99124.41
2023-05-06T11:16:49.314Z,99121.09
2023-05-06T11:20:24.162Z,99119.94
2023-05-06T11:23:46.915Z,99114.22
2023-05-06T11:26:50.064Z,99116.78
2023-05-06T11:29:51.661Z,99117.25
2023-05-06T11:32:55.909Z,99110.28
2023-05-06T11:35:57.614Z,99111.88
2023-05-06T11:39:05.706Z,99119.91
2023-05-06T11:42:08.797Z,99111.28
2023-05-06T11:45:11.456Z,99103.56
2023-05-06T11:48:17.164Z,99100.84
2023-05-06T11:51:22.261Z,99099.28
2023-05-06T11:54:27.265Z,99086.34
2023-05-06T11:57:29.773Z,99094.22
2023-05-06T12:00:31.424Z,99087.34
2023-05-06T12:03:34.779Z,99090.09
2023-05-06T12:06:37.433Z,99087.78
2023-05-06T12:09:42.550Z,99094.63
2023-05-06T12:12:44.430Z,99082.41
2023-05-06T12:15:47.638Z,99088.16
2023-05-06T12:18:49.784Z,99080.31
2023-05-06T12:21:51.460Z,99063.84
2023-05-06T12:24:53.356Z,99074.06
2023-05-06T12:27:56.777Z,99068.59
2023-05-06T12:31:00.772Z,99078.63
2023-05-06T12:34:03.440Z,99066.06
2023-05-06T12:37:05.777Z,99049.59
2023-05-06T12:40:16.528Z,99048.91
2023-05-06T12:43:18.370Z,99050.94
2023-05-06T12:46:20.131Z,99039.91
2023-05-06T12:49:21.856Z,99035.38
2023-05-06T12:52:25.287Z,99050.78
2023-05-06T12:55:27.172Z,99044.00
2023-05-06T12:58:28.781Z,99039.97
2023-05-06T13:01:31.580Z,99045.00
2023-05-06T13:04:33.560Z,99040.13
2023-05-06T13:07:35.177Z,99031.63
2023-05-06T13:10:37.017Z,99033.63
2023-05-06T13:13:38.736Z,99030.63
2023-05-06T13:16:42.220Z,99033.84
2023-05-06T13:19:43.954Z,99031.03
2023-05-06T13:22:54.222Z,99027.78
2023-05-06T13:26:04.254Z,99022.31
2023-05-06T13:29:06.863Z,99021.91
2023-05-06T13:32:09.129Z,99019.28
2023-05-06T13:35:11.110Z,99010.19
2023-05-06T13:38:12.996Z,99008.31
2023-05-06T13:41:14.835Z,99014.78
2023-05-06T13:44:17.494Z,99013.19
2023-05-06T13:47:19.198Z,99004.41
2023-05-06T13:50:20.755Z,99006.47
2023-05-06T13:53:22.480Z,98995.50
2023-05-06T13:56:24.195Z,98987.50
2023-05-06T13:59:26.012Z,98993.91
2023-05-06T14:02:28.220Z,98986.81
2023-05-06T14:05:30.150Z,98987.59
2023-05-06T14:08:32.789Z,98975.44
2023-05-06T14:11:34.351Z,98969.84
2023-05-06T14:14:36.102Z,98973.19
2023-05-06T14:17:38.615Z,98980.34
2023-05-06T14:20:40.302Z,98979.19
2023-05-06T14:23:41.954Z,98974.16
2023-05-06T14:26:46.092Z,98980.47
2023-05-06T14:29:47.814Z,98970.09
2023-05-06T14:32:49.585Z,98966.03
2023-05-06T14:35:54.222Z,98972.88
2023-05-06T14:38:56.297Z,98965.34
2023-05-06T14:41:58.154Z,98967.41
2023-05-06T14:44:59.802Z,98962.50
2023-05-06T14:48:01.954Z,98960.03
2023-05-06T14:51:03.764Z,98951.69
2023-05-06T14:54:05.636Z,98959.19
2023-05-06T14:57:07.847Z,98959.94
2023-05-06T15:00:10.349Z,98944.19
2023-05-06T15:03:12.014Z,98953.00
2023-05-06T15:06:13.704Z,98947.41
2023-05-06T15:09:15.320Z,98946.84
2023-05-06T15:12:17.058Z,98943.31
2023-05-06T15:15:18.993Z,98944.09
2023-05-06T15:18:20.690Z,98941.31
2023-05-06T15:21:22.289Z,98953.59
2023-05-06T15:24:23.944Z,98954.06
2023-05-06T15:27:25.580Z,98949.72
2023-05-06T15:30:27.246Z,98937.88
2023-05-06T15:33:28.870Z,98945.00
2023-05-06T15:36:31.202Z,98931.78
2023-05-06T15:39:37.667Z,98935.47
2023-05-06T15:42:40.086Z,98940.88
2023-05-06T15:45:41.814Z,98929.34
2023-05-06T15:48:45.971Z,98939.28
2023-05-06T15:51:47.566Z,98940.84
2023-05-06T15:54:50.117Z,98937.81
2023-05-06T15:57:53.619Z,98936.28
2023-05-06T16:00:55.311Z,98931.75
2023-05-06T16:03:56.996Z,98925.13
2023-05-06T16:06:58.903Z,98932.22
2023-05-06T16:10:00.666Z,98928.91
2023-05-06T16:13:02.290Z,98922.72
2023-05-06T16:16:04.183Z,98913.47
2023-05-06T16:19:06.319Z,98929.09
2023-05-06T16:22:07.891Z,98919.94
2023-05-06T16:25:09.954Z,98909.16
2023-05-06T16:28:11.621Z,98910.38
2023-05-06T16:31:13.297Z,98909.69
2023-05-06T16:34:15.586Z,98909.00
2023-05-06T16:37:17.263Z,98902.13
2023-05-06T16:40:22.931Z,98910.38
2023-05-06T16:43:24.532Z,98907.59
2023-05-06T16:46:29.101Z,98901.75
2023-05-06T16:49:30.978Z,98904.72
2023-05-06T16:52:32.634Z,98902.25
2023-05-06T16:55:34.402Z,98903.28
2023-05-06T16:58:36.039Z,98900.03
2023-05-06T17:01:37.774Z,98899.94
2023-05-06T17:04:39.790Z,98892.94
2023-05-06T17:07:41.506Z,98884.28
2023-05-06T17:10:43.605Z,98892.59
2023-05-06T17:13:45.438Z,98888.97
2023-05-06T17:16:47.235Z,98885.25
2023-05-06T17:19:48.873Z,98901.75
2023-05-06T17:22:50.664Z,98891.16
2023-05-06T17:25:52.485Z,98890.94
2023-05-06T17:28:54.271Z,98884.03
2023-05-06T17:31:55.999Z,98899.09
2023-05-06T17:34:57.790Z,98899.13
2023-05-06T17:37:59.609Z,98898.81
2023-05-06T17:41:01.178Z,98898.50
2023-05-06T17:44:03.268Z,98885.66
2023-05-06T17:47:08.157Z,98880.66
2023-05-06T17:50:10.972Z,98888.56
2023-05-06T17:53:12.646Z,98878.41
2023-05-06T17:56:14.278Z,98885.50
2023-05-06T17:59:20.088Z,98885.97
2023-05-06T18:02:22.432Z,98894.28
2023-05-06T18:05:25.949Z,98897.81
2023-05-06T18:08:27.632Z,98896.59
2023-05-06T18:11:29.256Z,98883.28
2023-05-06T18:14:30.889Z,98897.03
2023-05-06T18:17:32.675Z,98904.50
2023-05-06T18:20:34.501Z,98914.28
2023-05-06T18:23:36.219Z,98906.06
2023-05-06T18:26:44.786Z,98911.94
2023-05-06T18:29:48.093Z,98917.84
2023-05-06T18:32:51.801Z,98918.59
2023-05-06T18:35:54.497Z,98913.06
2023-05-06T18:38:56.672Z,98926.75
2023-05-06T18:41:58.454Z,98918.84
2023-05-06T18:45:00.454Z,98917.25
2023-05-06T18:48:02.243Z,98921.94
2023-05-06T18:51:11.138Z,98926.94
2023-05-06T18:54:14.235Z,98913.56
2023-05-06T18:57:19.560Z,98938.81
2023-05-06T19:00:22.525Z,98943.28
2023-05-06T19:03:24.278Z,98935.44
2023-05-06T19:06:25.914Z,98940.88
2023-05-06T19:09:27.641Z,98945.88
2023-05-06T19:12:30.488Z,98937.03
2023-05-06T19:15:32.153Z,98944.50
2023-05-06T19:18:33.772Z,98947.91
2023-05-06T19:21:38.359Z,98939.63
2023-05-06T19:24:39.968Z,98947.03
2023-05-06T19:27:42.035Z,98944.69
2023-05-06T19:30:43.699Z,98946.97
2023-05-06T19:33:45.481Z,98947.66
2023-05-06T19:36:47.138Z,98942.69
2023-05-06T19:39:49.587Z,98953.19
2023-05-06T19:42:51.376Z,98955.22
2023-05-06T19:45:53.105Z,98951.31
2023-05-06T19:48:54.910Z,98950.56
2023-05-06T19:51:56.574Z,98959.97
2023-05-06T19:54:59.537Z,98947.03
2023-05-06T19:58:02.268Z,98941.91
2023-05-06T20:01:04.211Z,98941.84
2023-05-06T20:04:05.902Z,98951.59
2023-05-06T20:07:07.701Z,98944.53
2023-05-06T20:10:10.044Z,98949.97
2023-05-06T20:13:12.006Z,98945.97
2023-05-06T20:16:13.821Z,98943.91
2023-05-06T20:19:17.873Z,98945.34
2023-05-06T20:22:19.578Z,98950.72
2023-05-06T20:25:21.794Z,98938.91
2023-05-06T20:28:23.515Z,98934.81
2023-05-06T20:31:25.570Z,98934.28
2023-05-06T20:34:27.312Z,98942.13
2023-05-06T20:37:29.443Z,98938.50
2023-05-06T20:40:31.194Z,98927.41
2023-05-06T20:43:35.237Z,98928.22
2023-05-06T20:46:37.024Z,98925.75
2023-05-06T20:49:39.328Z,98925.59
2023-05-06T20:52:41.096Z,98927.28
2023-05-06T20:55:42.896Z,98930.75
2023-05-06T20:58:44.749Z,98923.81
2023-05-06T21:01:46.513Z,98927.47
2023-05-06T21:04:48.262Z,98916.38
2023-05-06T21:07:49.822Z,98915.50
2023-05-06T21:10:51.514Z,98922.19
2023-05-06T21:13:53.132Z,98908.50
2023-05-06T21:16:54.941Z,98904.06
2023-05-06T21:19:56.718Z,98914.28
2023-05-06T21:22:58.384Z,98908.72
2023-05-06T21:26:00.043Z,98908.84
2023-05-06T21:29:01.818Z,98909.59
2023-05-06T21:32:03.467Z,98910.94
2023-05-06T21:35:05.643Z,98922.47
2023-05-06T21:38:07.294Z,98920.31
2023-05-06T21:41:09.081Z,98910.94
2023-05-06T21:44:10.664Z,98908.59
2023-05-06T21:47:12.349Z,98904.69
2023-05-06T21:50:14.599Z,98906.69
2023-05-06T21:53:16.303Z,98908.06
2023-05-06T21:56:18.384Z,98906.78
2023-05-06T21:59:20.038Z,98904.59
2023-05-06T22:02:22.966Z,98910.28
2023-05-06T22:05:24.970Z,98904.63
2023-05-06T22:08:26.783Z,98908.28
2023-05-06T22:11:28.387Z,98900.34
2023-05-06T22:14:40.134Z,98911.44
2023-05-06T22:17:42.959Z,98899.91
2023-05-06T22:20:45.117Z,98887.63
2023-05-06T22:23:46.737Z,98897.16
2023-05-06T22:26:48.337Z,98890.13
2023-05-06T22:29:50.045Z,98894.66
2023-05-06T22:32:51.742Z,98904.75
2023-05-06T22:35:54.102Z,98903.78
2023-05-06T22:38:55.970Z,98898.72
2023-05-06T22:41:57.659Z,98908.78
2023-05-06T22:44:59.309Z,98907.94
2023-05-06T22:48:00.996Z,98902.94
2023-05-06T22:51:02.808Z,98906.78
2023-05-06T22:54:04.413Z,98921.25
2023-05-06T22:57:06.151Z,98922.63
2023-05-06T23:00:08.789Z,98908.78
2023-05-06T23:03:10.715Z,98899.34
2023-05-06T23:06:12.447Z,98911.66
2023-05-06T23:09:14.102Z,98903.44
2023-05-06T23:12:16.005Z,98902.28
2023-05-06T23:15:17.765Z,98899.94
2023-05-06T23:18:20.634Z,98898.34
2023-05-06T23:21:22.498Z,98896.00
2023-05-06T23:24:24.113Z,98901.00
2023-05-06T23:27:26.091Z,98893.13
2023-05-06T23:30:27.777Z,98885.13
2023-05-06T23:33:29.403Z,98887.91
2023-05-06T23:36:31.124Z,98887.13
2023-05-06T23:39:32.845Z,98884.63
2023-05-06T23:42:34.712Z,98893.31
2023-05-06T23:45:36.618Z,98892.97
2023-05-06T23:48:38.255Z,98894.03
2023-05-06T23:51:39.885Z,98894.88
2023-05-06T23:54:41.749Z,98886.69
2023-05-06T23:57:43.316Z,98887.84
